sensor_id;sensor_type;location;lat;lon;timestamp;P1;durP1;ratioP1;P2;durP2;ratioP2
63906;SDS011;50075;49.484;11.238;2024-01-27T00:01:16;462.67;;;198.57;;
63906;SDS011;50075;49.484;11.238;2024-01-27T00:03:42;491.52;;;204.90;;
63906;SDS011;50075;49.484;11.238;2024-01-27T00:06:07;454.58;;;198.88;;
63906;SDS011;50075;49.484;11.238;2024-01-27T00:08:33;503.52;;;202.93;;
63906;SDS011;50075;49.484;11.238;2024-01-27T00:10:58;449.90;;;197.52;;
63906;SDS011;50075;49.484;11.238;2024-01-27T00:13:24;454.13;;;198.48;;
63906;SDS011;50075;49.484;11.238;2024-01-27T00:15:49;474.60;;;198.85;;
63906;SDS011;50075;49.484;11.238;2024-01-27T00:18:16;444.05;;;199.00;;
63906;SDS011;50075;49.484;11.238;2024-01-27T00:20:42;482.30;;;200.82;;
63906;SDS011;50075;49.484;11.238;2024-01-27T00:23:07;457.98;;;198.65;;
63906;SDS011;50075;49.484;11.238;2024-01-27T00:25:33;490.02;;;201.60;;
63906;SDS011;50075;49.484;11.238;2024-01-27T00:27:58;431.05;;;197.52;;
63906;SDS011;50075;49.484;11.238;2024-01-27T00:30:24;472.83;;;200.18;;
63906;SDS011;50075;49.484;11.238;2024-01-27T00:32:49;417.77;;;196.40;;
63906;SDS011;50075;49.484;11.238;2024-01-27T00:35:14;423.58;;;200.45;;
63906;SDS011;50075;49.484;11.238;2024-01-27T00:37:40;473.10;;;199.95;;
63906;SDS011;50075;49.484;11.238;2024-01-27T00:40:09;454.25;;;199.70;;
63906;SDS011;50075;49.484;11.238;2024-01-27T00:42:35;494.13;;;205.18;;
63906;SDS011;50075;49.484;11.238;2024-01-27T00:45:02;425.50;;;198.15;;
63906;SDS011;50075;49.484;11.238;2024-01-27T00:47:28;479.13;;;201.63;;
63906;SDS011;50075;49.484;11.238;2024-01-27T00:49:53;448.80;;;201.95;;
63906;SDS011;50075;49.484;11.238;2024-01-27T00:52:19;417.67;;;196.75;;
63906;SDS011;50075;49.484;11.238;2024-01-27T00:54:45;458.00;;;199.35;;
63906;SDS011;50075;49.484;11.238;2024-01-27T00:57:10;407.10;;;200.90;;
63906;SDS011;50075;49.484;11.238;2024-01-27T00:59:35;509.35;;;205.75;;
63906;SDS011;50075;49.484;11.238;2024-01-27T01:02:01;450.42;;;200.55;;
63906;SDS011;50075;49.484;11.238;2024-01-27T01:04:27;473.27;;;203.52;;
63906;SDS011;50075;49.484;11.238;2024-01-27T01:06:52;502.17;;;204.30;;
63906;SDS011;50075;49.484;11.238;2024-01-27T01:09:17;462.90;;;201.82;;
63906;SDS011;50075;49.484;11.238;2024-01-27T01:11:43;510.77;;;207.25;;
63906;SDS011;50075;49.484;11.238;2024-01-27T01:14:08;471.25;;;203.13;;
63906;SDS011;50075;49.484;11.238;2024-01-27T01:16:33;524.92;;;206.90;;
63906;SDS011;50075;49.484;11.238;2024-01-27T01:18:59;500.85;;;207.13;;
63906;SDS011;50075;49.484;11.238;2024-01-27T01:21:24;512.38;;;208.07;;
63906;SDS011;50075;49.484;11.238;2024-01-27T01:23:49;421.60;;;203.93;;
63906;SDS011;50075;49.484;11.238;2024-01-27T01:26:15;440.90;;;204.25;;
63906;SDS011;50075;49.484;11.238;2024-01-27T01:28:40;536.30;;;207.75;;
63906;SDS011;50075;49.484;11.238;2024-01-27T01:31:06;445.50;;;204.50;;
63906;SDS011;50075;49.484;11.238;2024-01-27T01:33:33;479.83;;;209.20;;
63906;SDS011;50075;49.484;11.238;2024-01-27T01:35:58;454.00;;;207.20;;
63906;SDS011;50075;49.484;11.238;2024-01-27T01:38:23;447.15;;;204.98;;
63906;SDS011;50075;49.484;11.238;2024-01-27T01:40:49;447.02;;;206.07;;
63906;SDS011;50075;49.484;11.238;2024-01-27T01:43:14;430.55;;;206.15;;
63906;SDS011;50075;49.484;11.238;2024-01-27T01:45:39;464.98;;;206.77;;
63906;SDS011;50075;49.484;11.238;2024-01-27T01:48:05;425.10;;;204.15;;
63906;SDS011;50075;49.484;11.238;2024-01-27T01:50:31;523.50;;;212.60;;
63906;SDS011;50075;49.484;11.238;2024-01-27T01:52:57;424.70;;;208.23;;
63906;SDS011;50075;49.484;11.238;2024-01-27T01:55:23;423.75;;;208.32;;
63906;SDS011;50075;49.484;11.238;2024-01-27T01:57:48;482.23;;;212.45;;
63906;SDS011;50075;49.484;11.238;2024-01-27T02:00:14;454.70;;;211.63;;
63906;SDS011;50075;49.484;11.238;2024-01-27T02:02:42;495.52;;;213.85;;
63906;SDS011;50075;49.484;11.238;2024-01-27T02:05:09;438.60;;;211.80;;
63906;SDS011;50075;49.484;11.238;2024-01-27T02:07:35;511.02;;;212.00;;
63906;SDS011;50075;49.484;11.238;2024-01-27T02:10:01;466.88;;;211.20;;
63906;SDS011;50075;49.484;11.238;2024-01-27T02:12:27;464.17;;;212.48;;
63906;SDS011;50075;49.484;11.238;2024-01-27T02:14:52;431.08;;;209.68;;
63906;SDS011;50075;49.484;11.238;2024-01-27T02:17:17;445.17;;;211.02;;
63906;SDS011;50075;49.484;11.238;2024-01-27T02:19:43;478.45;;;213.95;;
63906;SDS011;50075;49.484;11.238;2024-01-27T02:22:08;447.52;;;212.25;;
63906;SDS011;50075;49.484;11.238;2024-01-27T02:24:33;515.05;;;216.65;;
63906;SDS011;50075;49.484;11.238;2024-01-27T02:26:59;462.85;;;214.18;;
63906;SDS011;50075;49.484;11.238;2024-01-27T02:29:24;477.45;;;213.45;;
63906;SDS011;50075;49.484;11.238;2024-01-27T02:31:52;464.80;;;210.00;;
63906;SDS011;50075;49.484;11.238;2024-01-27T02:34:18;459.40;;;210.40;;
63906;SDS011;50075;49.484;11.238;2024-01-27T02:36:43;520.83;;;215.50;;
63906;SDS011;50075;49.484;11.238;2024-01-27T02:39:09;494.40;;;212.82;;
63906;SDS011;50075;49.484;11.238;2024-01-27T02:41:34;513.30;;;215.02;;
63906;SDS011;50075;49.484;11.238;2024-01-27T02:44:04;446.70;;;212.05;;
63906;SDS011;50075;49.484;11.238;2024-01-27T02:46:29;496.77;;;213.98;;
63906;SDS011;50075;49.484;11.238;2024-01-27T02:48:55;454.90;;;214.05;;
63906;SDS011;50075;49.484;11.238;2024-01-27T02:51:20;443.30;;;212.98;;
63906;SDS011;50075;49.484;11.238;2024-01-27T02:53:45;516.08;;;216.70;;
63906;SDS011;50075;49.484;11.238;2024-01-27T02:56:11;444.65;;;212.68;;
63906;SDS011;50075;49.484;11.238;2024-01-27T02:58:36;494.08;;;213.82;;
63906;SDS011;50075;49.484;11.238;2024-01-27T03:01:01;463.80;;;213.68;;
63906;SDS011;50075;49.484;11.238;2024-01-27T03:03:27;425.90;;;212.55;;
63906;SDS011;50075;49.484;11.238;2024-01-27T03:05:54;387.02;;;208.75;;
63906;SDS011;50075;49.484;11.238;2024-01-27T03:08:19;433.13;;;210.90;;
63906;SDS011;50075;49.484;11.238;2024-01-27T03:10:44;476.88;;;211.77;;
63906;SDS011;50075;49.484;11.238;2024-01-27T03:13:09;408.27;;;210.52;;
63906;SDS011;50075;49.484;11.238;2024-01-27T03:15:35;476.08;;;211.70;;
63906;SDS011;50075;49.484;11.238;2024-01-27T03:18:00;421.80;;;207.30;;
63906;SDS011;50075;49.484;11.238;2024-01-27T03:20:25;417.73;;;211.52;;
63906;SDS011;50075;49.484;11.238;2024-01-27T03:22:52;453.10;;;214.93;;
63906;SDS011;50075;49.484;11.238;2024-01-27T03:25:18;446.38;;;215.77;;
63906;SDS011;50075;49.484;11.238;2024-01-27T03:27:43;481.30;;;215.68;;
63906;SDS011;50075;49.484;11.238;2024-01-27T03:30:09;457.05;;;214.00;;
63906;SDS011;50075;49.484;11.238;2024-01-27T03:32:35;462.58;;;214.70;;
63906;SDS011;50075;49.484;11.238;2024-01-27T03:35:00;397.75;;;210.48;;
63906;SDS011;50075;49.484;11.238;2024-01-27T03:37:27;479.10;;;216.30;;
63906;SDS011;50075;49.484;11.238;2024-01-27T03:39:52;387.42;;;209.40;;
63906;SDS011;50075;49.484;11.238;2024-01-27T03:42:18;390.08;;;212.48;;
63906;SDS011;50075;49.484;11.238;2024-01-27T03:44:43;521.85;;;216.57;;
63906;SDS011;50075;49.484;11.238;2024-01-27T03:47:08;409.50;;;209.35;;
63906;SDS011;50075;49.484;11.238;2024-01-27T03:49:33;413.40;;;212.35;;
63906;SDS011;50075;49.484;11.238;2024-01-27T03:51:59;426.95;;;211.85;;
63906;SDS011;50075;49.484;11.238;2024-01-27T03:54:24;421.67;;;211.02;;
63906;SDS011;50075;49.484;11.238;2024-01-27T03:56:50;476.55;;;213.40;;
63906;SDS011;50075;49.484;11.238;2024-01-27T03:59:15;483.35;;;216.07;;
63906;SDS011;50075;49.484;11.238;2024-01-27T04:01:41;491.92;;;218.85;;
63906;SDS011;50075;49.484;11.238;2024-01-27T04:04:06;386.33;;;211.60;;
63906;SDS011;50075;49.484;11.238;2024-01-27T04:06:38;491.98;;;215.40;;
63906;SDS011;50075;49.484;11.238;2024-01-27T04:09:04;455.33;;;212.55;;
63906;SDS011;50075;49.484;11.238;2024-01-27T04:11:33;441.00;;;212.73;;
63906;SDS011;50075;49.484;11.238;2024-01-27T04:13:59;428.05;;;216.18;;
63906;SDS011;50075;49.484;11.238;2024-01-27T04:16:24;419.20;;;214.55;;
63906;SDS011;50075;49.484;11.238;2024-01-27T04:18:50;468.20;;;218.20;;
63906;SDS011;50075;49.484;11.238;2024-01-27T04:21:15;410.00;;;219.02;;
63906;SDS011;50075;49.484;11.238;2024-01-27T04:23:40;478.20;;;213.65;;
63906;SDS011;50075;49.484;11.238;2024-01-27T04:26:06;407.50;;;211.35;;
63906;SDS011;50075;49.484;11.238;2024-01-27T04:28:31;455.35;;;213.95;;
63906;SDS011;50075;49.484;11.238;2024-01-27T04:30:57;414.20;;;209.00;;
63906;SDS011;50075;49.484;11.238;2024-01-27T04:33:22;397.40;;;210.77;;
63906;SDS011;50075;49.484;11.238;2024-01-27T04:35:47;446.63;;;211.43;;
63906;SDS011;50075;49.484;11.238;2024-01-27T04:38:13;404.33;;;210.02;;
63906;SDS011;50075;49.484;11.238;2024-01-27T04:40:38;473.48;;;212.35;;
63906;SDS011;50075;49.484;11.238;2024-01-27T04:43:03;413.17;;;207.60;;
63906;SDS011;50075;49.484;11.238;2024-01-27T04:45:28;436.75;;;213.45;;
63906;SDS011;50075;49.484;11.238;2024-01-27T04:47:54;496.90;;;214.10;;
63906;SDS011;50075;49.484;11.238;2024-01-27T04:50:20;471.08;;;214.13;;
63906;SDS011;50075;49.484;11.238;2024-01-27T04:52:45;463.10;;;211.10;;
63906;SDS011;50075;49.484;11.238;2024-01-27T04:55:11;386.58;;;209.00;;
63906;SDS011;50075;49.484;11.238;2024-01-27T04:57:37;483.17;;;213.32;;
63906;SDS011;50075;49.484;11.238;2024-01-27T05:00:03;403.02;;;218.02;;
63906;SDS011;50075;49.484;11.238;2024-01-27T05:02:35;483.33;;;216.00;;
63906;SDS011;50075;49.484;11.238;2024-01-27T05:05:01;412.73;;;220.98;;
63906;SDS011;50075;49.484;11.238;2024-01-27T05:07:28;384.70;;;212.07;;
63906;SDS011;50075;49.484;11.238;2024-01-27T05:09:53;480.92;;;215.60;;
63906;SDS011;50075;49.484;11.238;2024-01-27T05:12:18;397.75;;;206.00;;
63906;SDS011;50075;49.484;11.238;2024-01-27T05:14:44;494.85;;;212.32;;
63906;SDS011;50075;49.484;11.238;2024-01-27T05:17:10;445.35;;;210.82;;
63906;SDS011;50075;49.484;11.238;2024-01-27T05:19:35;464.17;;;231.60;;
63906;SDS011;50075;49.484;11.238;2024-01-27T05:22:01;396.67;;;208.80;;
63906;SDS011;50075;49.484;11.238;2024-01-27T05:24:26;440.65;;;214.88;;
63906;SDS011;50075;49.484;11.238;2024-01-27T05:26:51;475.55;;;215.20;;
63906;SDS011;50075;49.484;11.238;2024-01-27T05:29:17;403.27;;;210.55;;
63906;SDS011;50075;49.484;11.238;2024-01-27T05:31:42;520.63;;;215.43;;
63906;SDS011;50075;49.484;11.238;2024-01-27T05:34:09;377.63;;;212.25;;
63906;SDS011;50075;49.484;11.238;2024-01-27T05:36:37;433.35;;;211.50;;
63906;SDS011;50075;49.484;11.238;2024-01-27T05:39:03;460.45;;;212.30;;
63906;SDS011;50075;49.484;11.238;2024-01-27T05:41:29;429.60;;;212.25;;
63906;SDS011;50075;49.484;11.238;2024-01-27T05:43:55;498.02;;;215.13;;
63906;SDS011;50075;49.484;11.238;2024-01-27T05:46:22;444.52;;;213.32;;
63906;SDS011;50075;49.484;11.238;2024-01-27T05:48:49;466.25;;;213.50;;
63906;SDS011;50075;49.484;11.238;2024-01-27T05:51:15;398.17;;;210.27;;
63906;SDS011;50075;49.484;11.238;2024-01-27T05:53:41;460.20;;;217.00;;
63906;SDS011;50075;49.484;11.238;2024-01-27T05:56:06;404.23;;;211.15;;
63906;SDS011;50075;49.484;11.238;2024-01-27T05:58:32;432.63;;;213.10;;
63906;SDS011;50075;49.484;11.238;2024-01-27T06:00:57;491.08;;;216.25;;
63906;SDS011;50075;49.484;11.238;2024-01-27T06:03:22;367.15;;;208.35;;
63906;SDS011;50075;49.484;11.238;2024-01-27T06:05:48;466.80;;;212.52;;
63906;SDS011;50075;49.484;11.238;2024-01-27T06:08:13;447.30;;;211.85;;
63906;SDS011;50075;49.484;11.238;2024-01-27T06:10:38;433.35;;;213.85;;
63906;SDS011;50075;49.484;11.238;2024-01-27T06:13:04;418.55;;;214.77;;
63906;SDS011;50075;49.484;11.238;2024-01-27T06:15:29;453.60;;;214.40;;
63906;SDS011;50075;49.484;11.238;2024-01-27T06:17:55;488.13;;;217.82;;
63906;SDS011;50075;49.484;11.238;2024-01-27T06:20:22;407.45;;;211.55;;
63906;SDS011;50075;49.484;11.238;2024-01-27T06:22:47;490.23;;;216.77;;
63906;SDS011;50075;49.484;11.238;2024-01-27T06:25:13;385.88;;;212.85;;
63906;SDS011;50075;49.484;11.238;2024-01-27T06:27:39;424.08;;;217.73;;
63906;SDS011;50075;49.484;11.238;2024-01-27T06:30:07;426.92;;;213.93;;
63906;SDS011;50075;49.484;11.238;2024-01-27T06:32:32;422.95;;;211.73;;
63906;SDS011;50075;49.484;11.238;2024-01-27T06:34:58;457.30;;;212.05;;
63906;SDS011;50075;49.484;11.238;2024-01-27T06:37:23;420.73;;;213.25;;
63906;SDS011;50075;49.484;11.238;2024-01-27T06:39:48;441.40;;;211.98;;
63906;SDS011;50075;49.484;11.238;2024-01-27T06:42:14;411.23;;;210.73;;
63906;SDS011;50075;49.484;11.238;2024-01-27T06:44:39;442.42;;;211.82;;
63906;SDS011;50075;49.484;11.238;2024-01-27T06:47:04;375.67;;;206.52;;
63906;SDS011;50075;49.484;11.238;2024-01-27T06:49:30;445.60;;;209.10;;
63906;SDS011;50075;49.484;11.238;2024-01-27T06:51:55;512.20;;;218.00;;
63906;SDS011;50075;49.484;11.238;2024-01-27T06:54:20;374.80;;;209.88;;
63906;SDS011;50075;49.484;11.238;2024-01-27T06:56:46;445.75;;;210.45;;
63906;SDS011;50075;49.484;11.238;2024-01-27T06:59:11;448.67;;;213.00;;
63906;SDS011;50075;49.484;11.238;2024-01-27T07:01:37;414.02;;;212.15;;
63906;SDS011;50075;49.484;11.238;2024-01-27T07:04:02;386.17;;;212.32;;
63906;SDS011;50075;49.484;11.238;2024-01-27T07:06:27;471.38;;;215.65;;
63906;SDS011;50075;49.484;11.238;2024-01-27T07:08:53;460.65;;;214.88;;
63906;SDS011;50075;49.484;11.238;2024-01-27T07:11:18;386.23;;;212.98;;
63906;SDS011;50075;49.484;11.238;2024-01-27T07:13:44;452.45;;;214.95;;
63906;SDS011;50075;49.484;11.238;2024-01-27T07:16:09;403.35;;;210.38;;
63906;SDS011;50075;49.484;11.238;2024-01-27T07:18:34;439.83;;;211.15;;
63906;SDS011;50075;49.484;11.238;2024-01-27T07:21:01;524.97;;;218.32;;
63906;SDS011;50075;49.484;11.238;2024-01-27T07:23:27;377.90;;;209.02;;
63906;SDS011;50075;49.484;11.238;2024-01-27T07:25:53;461.45;;;216.50;;
63906;SDS011;50075;49.484;11.238;2024-01-27T07:28:18;441.80;;;216.52;;
63906;SDS011;50075;49.484;11.238;2024-01-27T07:30:43;409.85;;;215.68;;
63906;SDS011;50075;49.484;11.238;2024-01-27T07:33:09;372.33;;;212.77;;
63906;SDS011;50075;49.484;11.238;2024-01-27T07:35:35;490.92;;;225.73;;
63906;SDS011;50075;49.484;11.238;2024-01-27T07:38:00;989.90;;;271.00;;
63906;SDS011;50075;49.484;11.238;2024-01-27T07:40:26;537.80;;;236.45;;
63906;SDS011;50075;49.484;11.238;2024-01-27T07:42:51;877.60;;;248.00;;
63906;SDS011;50075;49.484;11.238;2024-01-27T07:45:16;684.78;;;242.07;;
63906;SDS011;50075;49.484;11.238;2024-01-27T07:47:42;667.20;;;232.73;;
63906;SDS011;50075;49.484;11.238;2024-01-27T07:50:07;514.45;;;225.60;;
63906;SDS011;50075;49.484;11.238;2024-01-27T07:52:34;515.85;;;227.90;;
63906;SDS011;50075;49.484;11.238;2024-01-27T07:55:00;564.35;;;230.90;;
63906;SDS011;50075;49.484;11.238;2024-01-27T07:57:26;507.08;;;222.45;;
63906;SDS011;50075;49.484;11.238;2024-01-27T07:59:51;557.33;;;225.15;;
63906;SDS011;50075;49.484;11.238;2024-01-27T08:02:16;473.02;;;222.95;;
63906;SDS011;50075;49.484;11.238;2024-01-27T08:04:42;536.30;;;223.65;;
63906;SDS011;50075;49.484;11.238;2024-01-27T08:07:07;468.85;;;219.95;;
63906;SDS011;50075;49.484;11.238;2024-01-27T08:09:35;545.60;;;218.73;;
63906;SDS011;50075;49.484;11.238;2024-01-27T08:12:01;579.88;;;224.95;;
63906;SDS011;50075;49.484;11.238;2024-01-27T08:14:30;470.98;;;218.98;;
63906;SDS011;50075;49.484;11.238;2024-01-27T08:16:58;558.25;;;222.73;;
63906;SDS011;50075;49.484;11.238;2024-01-27T08:19:23;517.10;;;220.02;;
63906;SDS011;50075;49.484;11.238;2024-01-27T08:21:49;496.75;;;218.70;;
63906;SDS011;50075;49.484;11.238;2024-01-27T08:24:15;466.83;;;216.63;;
63906;SDS011;50075;49.484;11.238;2024-01-27T08:26:40;506.88;;;221.80;;
63906;SDS011;50075;49.484;11.238;2024-01-27T08:29:07;481.35;;;219.63;;
63906;SDS011;50075;49.484;11.238;2024-01-27T08:31:33;496.08;;;219.98;;
63906;SDS011;50075;49.484;11.238;2024-01-27T08:33:58;543.25;;;224.88;;
63906;SDS011;50075;49.484;11.238;2024-01-27T08:36:23;445.98;;;222.45;;
63906;SDS011;50075;49.484;11.238;2024-01-27T08:38:49;481.02;;;218.90;;
63906;SDS011;50075;49.484;11.238;2024-01-27T08:41:14;456.08;;;217.30;;
63906;SDS011;50075;49.484;11.238;2024-01-27T08:43:40;490.88;;;217.30;;
63906;SDS011;50075;49.484;11.238;2024-01-27T08:46:05;563.88;;;222.95;;
63906;SDS011;50075;49.484;11.238;2024-01-27T08:48:36;491.02;;;218.02;;
63906;SDS011;50075;49.484;11.238;2024-01-27T08:51:01;541.72;;;222.85;;
63906;SDS011;50075;49.484;11.238;2024-01-27T08:53:26;490.48;;;215.95;;
63906;SDS011;50075;49.484;11.238;2024-01-27T08:55:52;509.17;;;220.13;;
63906;SDS011;50075;49.484;11.238;2024-01-27T08:58:17;423.70;;;215.05;;
63906;SDS011;50075;49.484;11.238;2024-01-27T09:00:42;472.88;;;216.65;;
63906;SDS011;50075;49.484;11.238;2024-01-27T09:03:08;411.67;;;212.10;;
63906;SDS011;50075;49.484;11.238;2024-01-27T09:05:33;439.48;;;215.63;;
63906;SDS011;50075;49.484;11.238;2024-01-27T09:07:59;562.47;;;224.55;;
63906;SDS011;50075;49.484;11.238;2024-01-27T09:10:24;417.25;;;213.82;;
63906;SDS011;50075;49.484;11.238;2024-01-27T09:12:49;404.63;;;216.50;;
63906;SDS011;50075;49.484;11.238;2024-01-27T09:15:15;405.58;;;218.00;;
63906;SDS011;50075;49.484;11.238;2024-01-27T09:17:40;464.08;;;217.10;;
63906;SDS011;50075;49.484;11.238;2024-01-27T09:20:08;466.33;;;215.07;;
63906;SDS011;50075;49.484;11.238;2024-01-27T09:22:33;462.75;;;218.05;;
63906;SDS011;50075;49.484;11.238;2024-01-27T09:24:59;559.75;;;224.98;;
63906;SDS011;50075;49.484;11.238;2024-01-27T09:27:24;415.58;;;213.82;;
63906;SDS011;50075;49.484;11.238;2024-01-27T09:29:49;418.80;;;218.45;;
63906;SDS011;50075;49.484;11.238;2024-01-27T09:32:15;451.35;;;222.10;;
63906;SDS011;50075;49.484;11.238;2024-01-27T09:34:40;443.45;;;218.85;;
63906;SDS011;50075;49.484;11.238;2024-01-27T09:37:05;554.22;;;223.93;;
63906;SDS011;50075;49.484;11.238;2024-01-27T09:39:31;527.65;;;228.13;;
63906;SDS011;50075;49.484;11.238;2024-01-27T09:41:56;486.00;;;217.32;;
63906;SDS011;50075;49.484;11.238;2024-01-27T09:44:25;434.30;;;215.43;;
63906;SDS011;50075;49.484;11.238;2024-01-27T09:46:52;461.20;;;221.50;;
63906;SDS011;50075;49.484;11.238;2024-01-27T09:49:19;447.33;;;218.60;;
63906;SDS011;50075;49.484;11.238;2024-01-27T09:51:45;476.15;;;227.25;;
63906;SDS011;50075;49.484;11.238;2024-01-27T09:54:11;541.22;;;235.70;;
63906;SDS011;50075;49.484;11.238;2024-01-27T09:56:36;445.50;;;214.18;;
63906;SDS011;50075;49.484;11.238;2024-01-27T09:59:02;579.38;;;227.77;;
63906;SDS011;50075;49.484;11.238;2024-01-27T10:01:30;490.42;;;215.77;;
63906;SDS011;50075;49.484;11.238;2024-01-27T10:03:58;538.33;;;220.55;;
63906;SDS011;50075;49.484;11.238;2024-01-27T10:06:24;477.48;;;214.50;;
63906;SDS011;50075;49.484;11.238;2024-01-27T10:08:54;441.00;;;211.32;;
63906;SDS011;50075;49.484;11.238;2024-01-27T10:11:20;469.33;;;211.73;;
63906;SDS011;50075;49.484;11.238;2024-01-27T10:13:54;503.10;;;218.65;;
63906;SDS011;50075;49.484;11.238;2024-01-27T10:16:21;456.48;;;208.48;;
63906;SDS011;50075;49.484;11.238;2024-01-27T10:18:46;485.08;;;203.82;;
63906;SDS011;50075;49.484;11.238;2024-01-27T10:21:12;498.83;;;137.75;;
63906;SDS011;50075;49.484;11.238;2024-01-27T10:23:39;427.45;;;133.02;;
63906;SDS011;50075;49.484;11.238;2024-01-27T10:26:05;597.80;;;187.38;;
63906;SDS011;50075;49.484;11.238;2024-01-27T10:28:30;601.92;;;250.55;;
63906;SDS011;50075;49.484;11.238;2024-01-27T10:31:07;632.10;;;309.70;;
63906;SDS011;50075;49.484;11.238;2024-01-27T10:33:35;715.60;;;345.73;;
63906;SDS011;50075;49.484;11.238;2024-01-27T10:36:01;792.83;;;396.20;;
63906;SDS011;50075;49.484;11.238;2024-01-27T10:41:00;749.92;;;379.75;;
63906;SDS011;50075;49.484;11.238;2024-01-27T10:43:26;657.70;;;355.77;;
63906;SDS011;50075;49.484;11.238;2024-01-27T10:45:53;668.75;;;371.15;;
63906;SDS011;50075;49.484;11.238;2024-01-27T10:48:21;658.55;;;383.83;;
63906;SDS011;50075;49.484;11.238;2024-01-27T10:50:48;656.25;;;383.02;;
63906;SDS011;50075;49.484;11.238;2024-01-27T10:53:21;693.28;;;413.88;;
63906;SDS011;50075;49.484;11.238;2024-01-27T10:55:49;667.00;;;429.75;;
63906;SDS011;50075;49.484;11.238;2024-01-27T10:58:18;597.40;;;314.33;;
63906;SDS011;50075;49.484;11.238;2024-01-27T11:00:46;617.50;;;311.83;;
63906;SDS011;50075;49.484;11.238;2024-01-27T11:03:15;712.65;;;328.10;;
63906;SDS011;50075;49.484;11.238;2024-01-27T11:05:43;643.05;;;317.02;;
63906;SDS011;50075;49.484;11.238;2024-01-27T11:08:12;698.65;;;300.63;;
63906;SDS011;50075;49.484;11.238;2024-01-27T11:10:38;629.72;;;328.88;;
63906;SDS011;50075;49.484;11.238;2024-01-27T11:13:04;863.40;;;321.40;;
63906;SDS011;50075;49.484;11.238;2024-01-27T11:15:30;644.38;;;317.25;;
63906;SDS011;50075;49.484;11.238;2024-01-27T11:17:59;624.22;;;327.95;;
63906;SDS011;50075;49.484;11.238;2024-01-27T11:20:25;655.55;;;327.02;;
63906;SDS011;50075;49.484;11.238;2024-01-27T11:22:50;623.03;;;337.52;;
63906;SDS011;50075;49.484;11.238;2024-01-27T11:25:17;586.38;;;329.33;;
63906;SDS011;50075;49.484;11.238;2024-01-27T11:27:44;667.88;;;320.10;;
63906;SDS011;50075;49.484;11.238;2024-01-27T11:32:56;647.93;;;322.87;;
63906;SDS011;50075;49.484;11.238;2024-01-27T11:35:23;616.10;;;318.63;;
63906;SDS011;50075;49.484;11.238;2024-01-27T11:37:51;679.80;;;351.38;;
63906;SDS011;50075;49.484;11.238;2024-01-27T11:40:17;765.30;;;302.23;;
63906;SDS011;50075;49.484;11.238;2024-01-27T11:42:42;697.78;;;369.58;;
63906;SDS011;50075;49.484;11.238;2024-01-27T11:45:08;798.80;;;397.00;;
63906;SDS011;50075;49.484;11.238;2024-01-27T11:47:35;748.67;;;389.20;;
63906;SDS011;50075;49.484;11.238;2024-01-27T11:50:00;715.75;;;330.77;;
63906;SDS011;50075;49.484;11.238;2024-01-27T11:52:27;738.42;;;372.35;;
63906;SDS011;50075;49.484;11.238;2024-01-27T11:57:21;669.85;;;371.50;;
63906;SDS011;50075;49.484;11.238;2024-01-27T11:59:47;683.33;;;340.27;;
63906;SDS011;50075;49.484;11.238;2024-01-27T12:02:12;726.05;;;338.52;;
63906;SDS011;50075;49.484;11.238;2024-01-27T12:04:38;624.63;;;293.65;;
63906;SDS011;50075;49.484;11.238;2024-01-27T12:07:03;809.25;;;415.88;;
63906;SDS011;50075;49.484;11.238;2024-01-27T12:09:28;645.58;;;278.33;;
63906;SDS011;50075;49.484;11.238;2024-01-27T12:11:54;666.55;;;318.85;;
63906;SDS011;50075;49.484;11.238;2024-01-27T12:14:19;730.70;;;352.35;;
63906;SDS011;50075;49.484;11.238;2024-01-27T12:16:45;693.83;;;350.00;;
63906;SDS011;50075;49.484;11.238;2024-01-27T12:19:12;807.60;;;302.50;;
63906;SDS011;50075;49.484;11.238;2024-01-27T12:21:38;691.75;;;295.23;;
63906;SDS011;50075;49.484;11.238;2024-01-27T12:24:03;727.58;;;313.77;;
63906;SDS011;50075;49.484;11.238;2024-01-27T12:26:29;671.53;;;295.88;;
63906;SDS011;50075;49.484;11.238;2024-01-27T12:28:56;697.33;;;309.83;;
63906;SDS011;50075;49.484;11.238;2024-01-27T12:31:23;607.08;;;295.55;;
63906;SDS011;50075;49.484;11.238;2024-01-27T12:33:49;590.28;;;294.58;;
63906;SDS011;50075;49.484;11.238;2024-01-27T12:36:18;744.38;;;302.70;;
63906;SDS011;50075;49.484;11.238;2024-01-27T12:38:56;676.00;;;329.48;;
63906;SDS011;50075;49.484;11.238;2024-01-27T12:41:23;675.75;;;303.65;;
63906;SDS011;50075;49.484;11.238;2024-01-27T12:43:49;634.38;;;304.17;;
63906;SDS011;50075;49.484;11.238;2024-01-27T12:46:14;697.15;;;299.35;;
63906;SDS011;50075;49.484;11.238;2024-01-27T12:48:41;663.17;;;296.38;;
63906;SDS011;50075;49.484;11.238;2024-01-27T12:51:07;698.78;;;304.50;;
63906;SDS011;50075;49.484;11.238;2024-01-27T12:53:33;633.47;;;295.65;;
63906;SDS011;50075;49.484;11.238;2024-01-27T12:55:58;695.25;;;295.48;;
63906;SDS011;50075;49.484;11.238;2024-01-27T12:58:24;669.25;;;295.13;;
63906;SDS011;50075;49.484;11.238;2024-01-27T13:00:49;647.35;;;297.02;;
63906;SDS011;50075;49.484;11.238;2024-01-27T13:03:15;729.95;;;310.20;;
63906;SDS011;50075;49.484;11.238;2024-01-27T13:05:41;645.85;;;297.33;;
63906;SDS011;50075;49.484;11.238;2024-01-27T13:08:07;696.60;;;303.63;;
63906;SDS011;50075;49.484;11.238;2024-01-27T13:10:33;717.92;;;307.23;;
63906;SDS011;50075;49.484;11.238;2024-01-27T13:12:58;713.60;;;312.27;;
63906;SDS011;50075;49.484;11.238;2024-01-27T13:15:24;627.92;;;297.77;;
63906;SDS011;50075;49.484;11.238;2024-01-27T13:17:51;606.90;;;288.88;;
63906;SDS011;50075;49.484;11.238;2024-01-27T13:20:16;710.60;;;305.75;;
63906;SDS011;50075;49.484;11.238;2024-01-27T13:22:42;620.35;;;295.58;;
63906;SDS011;50075;49.484;11.238;2024-01-27T13:25:08;711.85;;;305.00;;
63906;SDS011;50075;49.484;11.238;2024-01-27T13:27:33;715.85;;;311.40;;
63906;SDS011;50075;49.484;11.238;2024-01-27T13:29:59;643.00;;;300.60;;
63906;SDS011;50075;49.484;11.238;2024-01-27T13:32:24;687.88;;;310.58;;
63906;SDS011;50075;49.484;11.238;2024-01-27T13:34:51;652.88;;;304.60;;
63906;SDS011;50075;49.484;11.238;2024-01-27T13:37:17;784.22;;;320.02;;
63906;SDS011;50075;49.484;11.238;2024-01-27T13:39:42;725.33;;;317.85;;
63906;SDS011;50075;49.484;11.238;2024-01-27T13:42:08;655.13;;;314.33;;
63906;SDS011;50075;49.484;11.238;2024-01-27T13:44:33;649.38;;;306.95;;